sensor_id;sensor_type;location;lat;lon;timestamp;P1;durP1;ratioP1;P2;durP2;ratioP2
11504;SDS011;5809;53.262;10.408;2022-08-03T00:00:21;46.65;;;27.95;;
11504;SDS011;5809;53.262;10.408;2022-08-03T00:02:50;58.15;;;36.75;;
11504;SDS011;5809;53.262;10.408;2022-08-03T00:05:17;24.27;;;16.25;;
11504;SDS011;5809;53.262;10.408;2022-08-03T00:07:45;9.25;;;5.57;;
11504;SDS011;5809;53.262;10.408;2022-08-03T00:10:12;6.15;;;4.25;;
11504;SDS011;5809;53.262;10.408;2022-08-03T00:12:39;4.65;;;4.00;;
11504;SDS011;5809;53.262;10.408;2022-08-03T00:15:07;4.05;;;3.60;;
11504;SDS011;5809;53.262;10.408;2022-08-03T00:17:34;5.30;;;3.58;;
11504;SDS011;5809;53.262;10.408;2022-08-03T00:20:02;4.63;;;4.15;;
11504;SDS011;5809;53.262;10.408;2022-08-03T00:22:29;4.30;;;3.90;;
11504;SDS011;5809;53.262;10.408;2022-08-03T00:24:57;4.75;;;4.28;;
11504;SDS011;5809;53.262;10.408;2022-08-03T00:27:25;5.70;;;3.63;;
11504;SDS011;5809;53.262;10.408;2022-08-03T00:29:52;4.90;;;4.13;;
11504;SDS011;5809;53.262;10.408;2022-08-03T00:32:19;5.38;;;4.00;;
11504;SDS011;5809;53.262;10.408;2022-08-03T00:34:46;7.50;;;4.20;;
11504;SDS011;5809;53.262;10.408;2022-08-03T00:37:14;4.30;;;3.65;;
11504;SDS011;5809;53.262;10.408;2022-08-03T00:39:41;4.95;;;4.15;;
11504;SDS011;5809;53.262;10.408;2022-08-03T00:42:11;6.05;;;4.20;;
11504;SDS011;5809;53.262;10.408;2022-08-03T00:44:38;4.85;;;4.20;;
11504;SDS011;5809;53.262;10.408;2022-08-03T00:47:06;5.28;;;4.00;;
11504;SDS011;5809;53.262;10.408;2022-08-03T00:49:34;5.50;;;4.68;;
11504;SDS011;5809;53.262;10.408;2022-08-03T00:52:01;6.35;;;4.70;;
11504;SDS011;5809;53.262;10.408;2022-08-03T00:54:29;6.05;;;4.63;;
11504;SDS011;5809;53.262;10.408;2022-08-03T00:56:57;8.80;;;4.88;;
11504;SDS011;5809;53.262;10.408;2022-08-03T00:59:25;7.72;;;4.40;;
11504;SDS011;5809;53.262;10.408;2022-08-03T01:01:53;5.15;;;4.38;;
11504;SDS011;5809;53.262;10.408;2022-08-03T01:04:20;5.93;;;4.38;;
11504;SDS011;5809;53.262;10.408;2022-08-03T01:06:49;5.07;;;4.07;;
11504;SDS011;5809;53.262;10.408;2022-08-03T01:09:18;4.90;;;4.40;;
11504;SDS011;5809;53.262;10.408;2022-08-03T01:11:53;6.50;;;5.78;;
11504;SDS011;5809;53.262;10.408;2022-08-03T01:14:23;6.85;;;5.60;;
11504;SDS011;5809;53.262;10.408;2022-08-03T01:16:54;6.10;;;5.03;;
11504;SDS011;5809;53.262;10.408;2022-08-03T01:19:35;7.32;;;5.00;;
11504;SDS011;5809;53.262;10.408;2022-08-03T01:22:09;5.65;;;4.57;;
11504;SDS011;5809;53.262;10.408;2022-08-03T01:24:43;6.40;;;4.43;;
11504;SDS011;5809;53.262;10.408;2022-08-03T01:27:21;6.03;;;4.20;;
11504;SDS011;5809;53.262;10.408;2022-08-03T01:30:03;5.47;;;3.90;;
11504;SDS011;5809;53.262;10.408;2022-08-03T01:32:36;5.35;;;4.20;;
11504;SDS011;5809;53.262;10.408;2022-08-03T01:35:07;5.07;;;4.57;;
11504;SDS011;5809;53.262;10.408;2022-08-03T01:37:37;4.70;;;4.30;;
11504;SDS011;5809;53.262;10.408;2022-08-03T01:40:05;6.53;;;4.63;;
11504;SDS011;5809;53.262;10.408;2022-08-03T01:42:34;4.38;;;3.97;;
11504;SDS011;5809;53.262;10.408;2022-08-03T01:45:04;4.78;;;4.10;;
11504;SDS011;5809;53.262;10.408;2022-08-03T01:47:33;4.75;;;4.03;;
11504;SDS011;5809;53.262;10.408;2022-08-03T01:50:00;5.35;;;4.05;;
11504;SDS011;5809;53.262;10.408;2022-08-03T01:52:29;4.40;;;4.00;;
11504;SDS011;5809;53.262;10.408;2022-08-03T01:54:57;4.20;;;3.90;;
11504;SDS011;5809;53.262;10.408;2022-08-03T01:57:26;5.53;;;4.00;;
11504;SDS011;5809;53.262;10.408;2022-08-03T01:59:54;4.60;;;4.03;;
11504;SDS011;5809;53.262;10.408;2022-08-03T02:02:23;6.05;;;3.72;;
11504;SDS011;5809;53.262;10.408;2022-08-03T02:04:51;5.43;;;3.92;;
11504;SDS011;5809;53.262;10.408;2022-08-03T02:07:20;6.70;;;4.28;;
11504;SDS011;5809;53.262;10.408;2022-08-03T02:09:48;5.30;;;4.18;;
11504;SDS011;5809;53.262;10.408;2022-08-03T02:12:16;4.68;;;3.92;;
11504;SDS011;5809;53.262;10.408;2022-08-03T02:14:45;4.47;;;4.00;;
11504;SDS011;5809;53.262;10.408;2022-08-03T02:17:14;4.70;;;4.15;;
11504;SDS011;5809;53.262;10.408;2022-08-03T02:19:43;5.05;;;4.20;;
11504;SDS011;5809;53.262;10.408;2022-08-03T02:22:11;4.80;;;4.30;;
11504;SDS011;5809;53.262;10.408;2022-08-03T02:24:40;4.50;;;4.10;;
11504;SDS011;5809;53.262;10.408;2022-08-03T02:27:09;7.20;;;4.43;;
11504;SDS011;5809;53.262;10.408;2022-08-03T02:29:41;5.28;;;4.22;;
11504;SDS011;5809;53.262;10.408;2022-08-03T02:32:12;5.43;;;4.47;;
11504;SDS011;5809;53.262;10.408;2022-08-03T02:34:41;4.63;;;4.22;;
11504;SDS011;5809;53.262;10.408;2022-08-03T02:37:10;5.80;;;4.25;;
11504;SDS011;5809;53.262;10.408;2022-08-03T02:39:39;4.65;;;4.25;;
11504;SDS011;5809;53.262;10.408;2022-08-03T02:42:07;4.85;;;4.43;;
11504;SDS011;5809;53.262;10.408;2022-08-03T02:44:35;6.18;;;4.32;;
11504;SDS011;5809;53.262;10.408;2022-08-03T02:47:05;6.40;;;4.30;;
11504;SDS011;5809;53.262;10.408;2022-08-03T02:49:35;4.82;;;4.43;;
11504;SDS011;5809;53.262;10.408;2022-08-03T02:52:04;4.68;;;4.20;;
11504;SDS011;5809;53.262;10.408;2022-08-03T02:54:36;4.60;;;4.20;;
11504;SDS011;5809;53.262;10.408;2022-08-03T02:57:04;6.93;;;4.25;;
11504;SDS011;5809;53.262;10.408;2022-08-03T02:59:33;5.68;;;4.70;;
11504;SDS011;5809;53.262;10.408;2022-08-03T03:02:01;4.93;;;4.53;;
11504;SDS011;5809;53.262;10.408;2022-08-03T03:04:29;5.35;;;4.45;;
11504;SDS011;5809;53.262;10.408;2022-08-03T03:06:56;4.78;;;4.25;;
11504;SDS011;5809;53.262;10.408;2022-08-03T03:09:25;5.70;;;4.80;;
11504;SDS011;5809;53.262;10.408;2022-08-03T03:11:53;4.93;;;4.22;;
11504;SDS011;5809;53.262;10.408;2022-08-03T03:14:20;7.35;;;4.22;;
11504;SDS011;5809;53.262;10.408;2022-08-03T03:16:48;5.13;;;4.32;;
11504;SDS011;5809;53.262;10.408;2022-08-03T03:19:17;5.38;;;4.35;;
11504;SDS011;5809;53.262;10.408;2022-08-03T03:21:46;10.88;;;4.50;;
11504;SDS011;5809;53.262;10.408;2022-08-03T03:24:14;5.82;;;4.57;;
11504;SDS011;5809;53.262;10.408;2022-08-03T03:26:42;4.45;;;4.05;;
11504;SDS011;5809;53.262;10.408;2022-08-03T03:29:10;6.18;;;4.20;;
11504;SDS011;5809;53.262;10.408;2022-08-03T03:31:38;4.82;;;4.43;;
11504;SDS011;5809;53.262;10.408;2022-08-03T03:34:05;5.22;;;4.70;;
11504;SDS011;5809;53.262;10.408;2022-08-03T03:36:32;5.05;;;4.57;;
11504;SDS011;5809;53.262;10.408;2022-08-03T03:39:01;4.78;;;4.32;;
11504;SDS011;5809;53.262;10.408;2022-08-03T03:41:28;6.53;;;4.82;;
11504;SDS011;5809;53.262;10.408;2022-08-03T03:43:55;4.45;;;4.15;;
11504;SDS011;5809;53.262;10.408;2022-08-03T03:46:24;5.10;;;4.63;;
11504;SDS011;5809;53.262;10.408;2022-08-03T03:48:51;5.03;;;4.53;;
11504;SDS011;5809;53.262;10.408;2022-08-03T03:51:18;8.60;;;4.57;;
11504;SDS011;5809;53.262;10.408;2022-08-03T03:53:55;5.55;;;5.00;;
11504;SDS011;5809;53.262;10.408;2022-08-03T03:56:22;4.70;;;4.30;;
11504;SDS011;5809;53.262;10.408;2022-08-03T03:58:49;4.82;;;4.43;;
11504;SDS011;5809;53.262;10.408;2022-08-03T04:01:17;5.80;;;4.88;;
11504;SDS011;5809;53.262;10.408;2022-08-03T04:03:45;6.82;;;4.80;;
11504;SDS011;5809;53.262;10.408;2022-08-03T04:06:13;5.25;;;4.75;;
11504;SDS011;5809;53.262;10.408;2022-08-03T04:08:58;6.20;;;4.53;;
11504;SDS011;5809;53.262;10.408;2022-08-03T04:11:45;7.05;;;4.72;;
11504;SDS011;5809;53.262;10.408;2022-08-03T04:14:15;7.25;;;5.35;;
11504;SDS011;5809;53.262;10.408;2022-08-03T04:16:44;5.07;;;4.60;;
11504;SDS011;5809;53.262;10.408;2022-08-03T04:19:14;5.20;;;4.70;;
11504;SDS011;5809;53.262;10.408;2022-08-03T04:21:43;5.13;;;4.30;;
11504;SDS011;5809;53.262;10.408;2022-08-03T04:24:13;5.75;;;4.65;;
11504;SDS011;5809;53.262;10.408;2022-08-03T04:26:42;6.75;;;4.72;;
11504;SDS011;5809;53.262;10.408;2022-08-03T04:29:10;4.75;;;4.35;;
11504;SDS011;5809;53.262;10.408;2022-08-03T04:31:39;6.10;;;4.68;;
11504;SDS011;5809;53.262;10.408;2022-08-03T04:34:07;5.38;;;4.82;;
11504;SDS011;5809;53.262;10.408;2022-08-03T04:36:37;6.10;;;4.75;;
11504;SDS011;5809;53.262;10.408;2022-08-03T04:39:07;5.95;;;4.85;;
11504;SDS011;5809;53.262;10.408;2022-08-03T04:41:34;5.65;;;4.82;;
11504;SDS011;5809;53.262;10.408;2022-08-03T04:44:03;8.02;;;5.13;;
11504;SDS011;5809;53.262;10.408;2022-08-03T04:46:33;6.13;;;4.78;;
11504;SDS011;5809;53.262;10.408;2022-08-03T04:49:01;6.85;;;4.90;;
11504;SDS011;5809;53.262;10.408;2022-08-03T04:51:29;5.45;;;4.72;;
11504;SDS011;5809;53.262;10.408;2022-08-03T04:54:00;5.18;;;4.60;;
11504;SDS011;5809;53.262;10.408;2022-08-03T04:56:27;6.60;;;4.47;;
11504;SDS011;5809;53.262;10.408;2022-08-03T04:58:54;4.82;;;4.43;;
11504;SDS011;5809;53.262;10.408;2022-08-03T05:01:22;6.22;;;4.40;;
11504;SDS011;5809;53.262;10.408;2022-08-03T05:03:49;5.20;;;4.60;;
11504;SDS011;5809;53.262;10.408;2022-08-03T05:06:16;5.88;;;4.63;;
11504;SDS011;5809;53.262;10.408;2022-08-03T05:08:43;6.18;;;4.90;;
11504;SDS011;5809;53.262;10.408;2022-08-03T05:11:12;7.30;;;4.68;;
11504;SDS011;5809;53.262;10.408;2022-08-03T05:13:39;5.82;;;4.63;;
11504;SDS011;5809;53.262;10.408;2022-08-03T05:16:06;7.75;;;4.93;;
11504;SDS011;5809;53.262;10.408;2022-08-03T05:18:34;4.90;;;4.25;;
11504;SDS011;5809;53.262;10.408;2022-08-03T05:21:01;4.28;;;3.95;;
11504;SDS011;5809;53.262;10.408;2022-08-03T05:23:28;5.15;;;4.47;;
11504;SDS011;5809;53.262;10.408;2022-08-03T05:25:55;4.60;;;4.20;;
11504;SDS011;5809;53.262;10.408;2022-08-03T05:28:24;5.18;;;4.28;;
11504;SDS011;5809;53.262;10.408;2022-08-03T05:30:51;4.15;;;3.75;;
11504;SDS011;5809;53.262;10.408;2022-08-03T05:33:18;4.78;;;4.38;;
11504;SDS011;5809;53.262;10.408;2022-08-03T05:35:46;4.30;;;3.90;;
11504;SDS011;5809;53.262;10.408;2022-08-03T05:38:13;4.40;;;4.10;;
11504;SDS011;5809;53.262;10.408;2022-08-03T05:40:40;5.57;;;4.32;;
11504;SDS011;5809;53.262;10.408;2022-08-03T05:43:07;4.60;;;4.28;;
11504;SDS011;5809;53.262;10.408;2022-08-03T05:45:36;4.50;;;4.10;;
11504;SDS011;5809;53.262;10.408;2022-08-03T05:48:03;4.80;;;4.07;;
11504;SDS011;5809;53.262;10.408;2022-08-03T05:50:31;4.40;;;4.03;;
11504;SDS011;5809;53.262;10.408;2022-08-03T05:52:58;4.88;;;3.92;;
11504;SDS011;5809;53.262;10.408;2022-08-03T05:55:25;5.93;;;3.90;;
11504;SDS011;5809;53.262;10.408;2022-08-03T05:57:52;5.80;;;4.10;;
11504;SDS011;5809;53.262;10.408;2022-08-03T06:00:19;4.22;;;3.83;;
11504;SDS011;5809;53.262;10.408;2022-08-03T06:02:48;4.47;;;3.90;;
11504;SDS011;5809;53.262;10.408;2022-08-03T06:05:15;4.20;;;3.80;;
11504;SDS011;5809;53.262;10.408;2022-08-03T06:07:42;3.70;;;3.40;;
11504;SDS011;5809;53.262;10.408;2022-08-03T06:10:09;4.30;;;3.90;;
11504;SDS011;5809;53.262;10.408;2022-08-03T06:12:36;4.40;;;3.97;;
11504;SDS011;5809;53.262;10.408;2022-08-03T06:15:05;5.63;;;3.95;;
11504;SDS011;5809;53.262;10.408;2022-08-03T06:17:33;6.45;;;3.60;;
11504;SDS011;5809;53.262;10.408;2022-08-03T06:20:01;5.75;;;3.40;;
11504;SDS011;5809;53.262;10.408;2022-08-03T06:22:28;6.00;;;3.65;;
11504;SDS011;5809;53.262;10.408;2022-08-03T06:24:55;4.22;;;3.72;;
11504;SDS011;5809;53.262;10.408;2022-08-03T06:27:23;6.93;;;4.88;;
11504;SDS011;5809;53.262;10.408;2022-08-03T06:29:50;5.80;;;3.53;;
11504;SDS011;5809;53.262;10.408;2022-08-03T06:32:18;4.20;;;3.75;;
11504;SDS011;5809;53.262;10.408;2022-08-03T06:34:46;4.10;;;3.40;;
11504;SDS011;5809;53.262;10.408;2022-08-03T06:37:15;5.22;;;3.70;;
11504;SDS011;5809;53.262;10.408;2022-08-03T06:39:42;4.00;;;3.60;;
11504;SDS011;5809;53.262;10.408;2022-08-03T06:42:09;4.50;;;3.53;;
11504;SDS011;5809;53.262;10.408;2022-08-03T06:44:36;4.10;;;3.70;;
11504;SDS011;5809;53.262;10.408;2022-08-03T06:47:03;3.75;;;3.40;;
11504;SDS011;5809;53.262;10.408;2022-08-03T06:49:30;4.28;;;3.25;;
11504;SDS011;5809;53.262;10.408;2022-08-03T06:51:57;5.95;;;3.55;;
11504;SDS011;5809;53.262;10.408;2022-08-03T06:54:25;5.35;;;3.33;;
11504;SDS011;5809;53.262;10.408;2022-08-03T06:56:53;3.15;;;2.85;;
11504;SDS011;5809;53.262;10.408;2022-08-03T06:59:20;4.57;;;3.20;;
11504;SDS011;5809;53.262;10.408;2022-08-03T07:01:47;3.67;;;3.22;;
11504;SDS011;5809;53.262;10.408;2022-08-03T07:04:13;4.20;;;3.08;;
11504;SDS011;5809;53.262;10.408;2022-08-03T07:06:40;5.57;;;3.17;;
11504;SDS011;5809;53.262;10.408;2022-08-03T07:09:08;5.10;;;2.97;;
11504;SDS011;5809;53.262;10.408;2022-08-03T07:11:37;4.72;;;3.28;;
11504;SDS011;5809;53.262;10.408;2022-08-03T07:14:04;4.47;;;2.78;;
11504;SDS011;5809;53.262;10.408;2022-08-03T07:16:31;6.53;;;3.10;;
11504;SDS011;5809;53.262;10.408;2022-08-03T07:18:58;3.00;;;2.80;;
11504;SDS011;5809;53.262;10.408;2022-08-03T07:21:25;4.40;;;2.58;;
11504;SDS011;5809;53.262;10.408;2022-08-03T07:23:52;2.78;;;2.58;;
11504;SDS011;5809;53.262;10.408;2022-08-03T07:26:19;3.22;;;2.70;;
11504;SDS011;5809;53.262;10.408;2022-08-03T07:28:47;2.70;;;2.50;;
11504;SDS011;5809;53.262;10.408;2022-08-03T07:31:14;2.60;;;2.40;;
11504;SDS011;5809;53.262;10.408;2022-08-03T07:33:41;7.97;;;3.78;;
11504;SDS011;5809;53.262;10.408;2022-08-03T07:36:08;2.80;;;2.60;;
11504;SDS011;5809;53.262;10.408;2022-08-03T07:38:35;2.97;;;2.72;;
11504;SDS011;5809;53.262;10.408;2022-08-03T07:41:02;6.50;;;2.70;;
11504;SDS011;5809;53.262;10.408;2022-08-03T07:43:30;3.60;;;2.50;;
11504;SDS011;5809;53.262;10.408;2022-08-03T07:45:58;2.85;;;2.20;;
11504;SDS011;5809;53.262;10.408;2022-08-03T07:48:25;4.88;;;2.35;;
11504;SDS011;5809;53.262;10.408;2022-08-03T07:50:52;3.83;;;2.33;;
11504;SDS011;5809;53.262;10.408;2022-08-03T07:53:19;7.35;;;2.00;;
11504;SDS011;5809;53.262;10.408;2022-08-03T07:55:46;5.93;;;2.03;;
11504;SDS011;5809;53.262;10.408;2022-08-03T07:58:13;4.13;;;2.15;;
11504;SDS011;5809;53.262;10.408;2022-08-03T08:00:42;7.05;;;2.10;;
11504;SDS011;5809;53.262;10.408;2022-08-03T08:03:11;4.07;;;2.00;;
11504;SDS011;5809;53.262;10.408;2022-08-03T08:05:37;4.78;;;2.22;;
11504;SDS011;5809;53.262;10.408;2022-08-03T08:08:05;4.15;;;2.20;;
11504;SDS011;5809;53.262;10.408;2022-08-03T08:10:32;4.20;;;2.17;;
11504;SDS011;5809;53.262;10.408;2022-08-03T08:13:00;4.90;;;2.13;;
11504;SDS011;5809;53.262;10.408;2022-08-03T08:15:27;4.00;;;2.28;;
11504;SDS011;5809;53.262;10.408;2022-08-03T08:17:56;3.38;;;2.05;;
11504;SDS011;5809;53.262;10.408;2022-08-03T08:20:28;4.72;;;2.15;;
11504;SDS011;5809;53.262;10.408;2022-08-03T08:22:58;4.35;;;2.25;;
11504;SDS011;5809;53.262;10.408;2022-08-03T08:25:25;2.65;;;2.15;;
11504;SDS011;5809;53.262;10.408;2022-08-03T08:27:52;2.80;;;1.88;;
11504;SDS011;5809;53.262;10.408;2022-08-03T08:30:21;5.53;;;2.00;;
11504;SDS011;5809;53.262;10.408;2022-08-03T08:32:48;3.28;;;1.83;;
11504;SDS011;5809;53.262;10.408;2022-08-03T08:35:16;5.15;;;1.90;;
11504;SDS011;5809;53.262;10.408;2022-08-03T08:37:45;4.03;;;2.10;;
11504;SDS011;5809;53.262;10.408;2022-08-03T08:40:12;3.22;;;1.98;;
11504;SDS011;5809;53.262;10.408;2022-08-03T08:42:39;3.88;;;1.90;;
11504;SDS011;5809;53.262;10.408;2022-08-03T08:45:07;3.42;;;1.60;;
11504;SDS011;5809;53.262;10.408;2022-08-03T08:47:36;3.35;;;1.80;;
11504;SDS011;5809;53.262;10.408;2022-08-03T08:50:06;2.95;;;1.98;;
11504;SDS011;5809;53.262;10.408;2022-08-03T08:52:35;4.90;;;2.00;;
11504;SDS011;5809;53.262;10.408;2022-08-03T08:55:07;2.72;;;1.75;;
11504;SDS011;5809;53.262;10.408;2022-08-03T08:57:35;4.82;;;1.67;;
11504;SDS011;5809;53.262;10.408;2022-08-03T09:00:08;4.97;;;2.13;;
11504;SDS011;5809;53.262;10.408;2022-08-03T09:02:38;6.38;;;2.20;;
11504;SDS011;5809;53.262;10.408;2022-08-03T09:05:08;5.75;;;2.00;;
11504;SDS011;5809;53.262;10.408;2022-08-03T09:07:36;4.00;;;1.70;;
11504;SDS011;5809;53.262;10.408;2022-08-03T09:10:04;4.25;;;1.70;;
11504;SDS011;5809;53.262;10.408;2022-08-03T09:12:36;7.80;;;1.83;;
11504;SDS011;5809;53.262;10.408;2022-08-03T09:15:17;5.55;;;2.00;;
11504;SDS011;5809;53.262;10.408;2022-08-03T09:17:46;4.72;;;2.22;;
11504;SDS011;5809;53.262;10.408;2022-08-03T09:20:13;4.60;;;1.85;;
11504;SDS011;5809;53.262;10.408;2022-08-03T09:22:53;7.88;;;2.00;;
11504;SDS011;5809;53.262;10.408;2022-08-03T09:25:27;3.65;;;1.95;;
11504;SDS011;5809;53.262;10.408;2022-08-03T09:28:03;3.85;;;1.80;;
11504;SDS011;5809;53.262;10.408;2022-08-03T09:30:32;4.63;;;1.80;;
11504;SDS011;5809;53.262;10.408;2022-08-03T09:33:00;6.75;;;2.25;;
11504;SDS011;5809;53.262;10.408;2022-08-03T09:35:27;5.00;;;1.90;;
11504;SDS011;5809;53.262;10.408;2022-08-03T09:38:13;3.10;;;1.80;;
11504;SDS011;5809;53.262;10.408;2022-08-03T09:40:43;4.32;;;2.00;;
11504;SDS011;5809;53.262;10.408;2022-08-03T09:43:11;3.60;;;1.80;;
11504;SDS011;5809;53.262;10.408;2022-08-03T09:45:38;3.00;;;1.90;;
11504;SDS011;5809;53.262;10.408;2022-08-03T09:48:25;6.57;;;2.78;;
11504;SDS011;5809;53.262;10.408;2022-08-03T09:50:53;6.57;;;3.10;;
11504;SDS011;5809;53.262;10.408;2022-08-03T09:53:22;4.47;;;2.50;;
11504;SDS011;5809;53.262;10.408;2022-08-03T09:55:51;5.35;;;2.03;;
11504;SDS011;5809;53.262;10.408;2022-08-03T09:58:21;3.95;;;2.97;;
11504;SDS011;5809;53.262;10.408;2022-08-03T10:00:52;10.50;;;4.85;;
11504;SDS011;5809;53.262;10.408;2022-08-03T10:03:20;4.93;;;1.92;;
11504;SDS011;5809;53.262;10.408;2022-08-03T10:05:47;7.15;;;1.80;;
11504;SDS011;5809;53.262;10.408;2022-08-03T10:08:15;7.63;;;2.03;;
11504;SDS011;5809;53.262;10.408;2022-08-03T10:10:43;6.25;;;2.20;;
11504;SDS011;5809;53.262;10.408;2022-08-03T10:13:13;5.25;;;2.10;;
11504;SDS011;5809;53.262;10.408;2022-08-03T10:15:42;6.32;;;2.28;;
11504;SDS011;5809;53.262;10.408;2022-08-03T10:18:09;4.20;;;1.90;;
11504;SDS011;5809;53.262;10.408;2022-08-03T10:20:38;3.50;;;1.75;;
11504;SDS011;5809;53.262;10.408;2022-08-03T10:23:09;5.00;;;2.00;;
11504;SDS011;5809;53.262;10.408;2022-08-03T10:25:36;5.90;;;2.22;;
11504;SDS011;5809;53.262;10.408;2022-08-03T10:28:04;4.22;;;1.88;;
11504;SDS011;5809;53.262;10.408;2022-08-03T10:30:34;3.75;;;2.20;;
11504;SDS011;5809;53.262;10.408;2022-08-03T10:33:06;4.43;;;2.20;;
11504;SDS011;5809;53.262;10.408;2022-08-03T10:35:38;4.93;;;1.83;;
11504;SDS011;5809;53.262;10.408;2022-08-03T10:38:06;3.13;;;1.88;;
11504;SDS011;5809;53.262;10.408;2022-08-03T10:40:37;2.17;;;1.48;;
11504;SDS011;5809;53.262;10.408;2022-08-03T10:43:06;6.47;;;1.83;;
11504;SDS011;5809;53.262;10.408;2022-08-03T10:45:36;4.53;;;2.00;;
11504;SDS011;5809;53.262;10.408;2022-08-03T10:48:06;4.55;;;2.08;;
11504;SDS011;5809;53.262;10.408;2022-08-03T10:50:34;4.88;;;1.90;;
11504;SDS011;5809;53.262;10.408;2022-08-03T10:53:03;4.47;;;2.10;;
11504;SDS011;5809;53.262;10.408;2022-08-03T10:55:32;6.38;;;2.28;;
11504;SDS011;5809;53.262;10.408;2022-08-03T11:01:15;4.72;;;1.80;;
11504;SDS011;5809;53.262;10.408;2022-08-03T11:06:43;4.03;;;1.85;;
11504;SDS011;5809;53.262;10.408;2022-08-03T11:09:14;7.70;;;2.20;;
11504;SDS011;5809;53.262;10.408;2022-08-03T11:11:42;4.22;;;2.70;;
11504;SDS011;5809;53.262;10.408;2022-08-03T11:14:11;3.63;;;2.03;;
11504;SDS011;5809;53.262;10.408;2022-08-03T11:16:40;4.78;;;1.90;;
11504;SDS011;5809;53.262;10.408;2022-08-03T11:19:11;5.22;;;2.13;;
11504;SDS011;5809;53.262;10.408;2022-08-03T11:21:51;7.18;;;2.50;;
11504;SDS011;5809;53.262;10.408;2022-08-03T11:27:25;4.35;;;2.03;;
11504;SDS011;5809;53.262;10.408;2022-08-03T11:29:54;5.75;;;2.08;;
11504;SDS011;5809;53.262;10.408;2022-08-03T11:35:34;6.30;;;2.45;;
11504;SDS011;5809;53.262;10.408;2022-08-03T11:38:22;4.38;;;2.10;;
11504;SDS011;5809;53.262;10.408;2022-08-03T11:40:49;7.90;;;2.30;;
11504;SDS011;5809;53.262;10.408;2022-08-03T11:46:08;7.75;;;2.17;;
11504;SDS011;5809;53.262;10.408;2022-08-03T11:48:41;3.20;;;1.73;;
11504;SDS011;5809;53.262;10.408;2022-08-03T11:51:17;4.07;;;1.70;;
11504;SDS011;5809;53.262;10.408;2022-08-03T11:53:46;6.38;;;1.70;;
11504;SDS011;5809;53.262;10.408;2022-08-03T11:56:17;4.60;;;1.60;;
11504;SDS011;5809;53.262;10.408;2022-08-03T11:58:45;5.13;;;1.65;;
11504;SDS011;5809;53.262;10.408;2022-08-03T12:01:12;3.83;;;1.90;;
11504;SDS011;5809;53.262;10.408;2022-08-03T12:03:41;3.60;;;1.80;;
11504;SDS011;5809;53.262;10.408;2022-08-03T12:06:08;5.45;;;1.92;;
11504;SDS011;5809;53.262;10.408;2022-08-03T12:08:36;6.20;;;2.05;;
11504;SDS011;5809;53.262;10.408;2022-08-03T12:11:06;9.73;;;2.10;;
11504;SDS011;5809;53.262;10.408;2022-08-03T12:13:35;8.10;;;1.80;;
11504;SDS011;5809;53.262;10.408;2022-08-03T12:16:06;3.42;;;1.50;;
11504;SDS011;5809;53.262;10.408;2022-08-03T12:18:33;6.47;;;1.90;;
11504;SDS011;5809;53.262;10.408;2022-08-03T12:21:04;7.60;;;1.73;;
11504;SDS011;5809;53.262;10.408;2022-08-03T12:23:32;3.10;;;1.60;;
11504;SDS011;5809;53.262;10.408;2022-08-03T12:26:02;4.00;;;1.50;;
11504;SDS011;5809;53.262;10.408;2022-08-03T12:28:32;6.50;;;1.80;;
11504;SDS011;5809;53.262;10.408;2022-08-03T12:31:00;6.32;;;1.88;;
11504;SDS011;5809;53.262;10.408;2022-08-03T12:33:30;3.45;;;1.70;;
11504;SDS011;5809;53.262;10.408;2022-08-03T12:36:02;3.35;;;1.60;;
11504;SDS011;5809;53.262;10.408;2022-08-03T12:38:31;3.47;;;1.60;;
11504;SDS011;5809;53.262;10.408;2022-08-03T12:41:00;4.00;;;1.70;;
11504;SDS011;5809;53.262;10.408;2022-08-03T12:43:29;3.63;;;1.80;;
11504;SDS011;5809;53.262;10.408;2022-08-03T12:46:13;3.92;;;1.83;;
11504;SDS011;5809;53.262;10.408;2022-08-03T12:48:56;6.32;;;1.70;;
11504;SDS011;5809;53.262;10.408;2022-08-03T12:51:23;5.75;;;1.65;;
11504;SDS011;5809;53.262;10.408;2022-08-03T12:53:52;4.43;;;1.80;;
11504;SDS011;5809;53.262;10.408;2022-08-03T12:56:19;4.85;;;1.73;;
11504;SDS011;5809;53.262;10.408;2022-08-03T12:58:47;7.40;;;1.90;;
11504;SDS011;5809;53.262;10.408;2022-08-03T13:01:16;4.88;;;1.65;;
11504;SDS011;5809;53.262;10.408;2022-08-03T13:03:45;3.08;;;1.60;;
11504;SDS011;5809;53.262;10.408;2022-08-03T13:06:13;5.40;;;1.90;;
11504;SDS011;5809;53.262;10.408;2022-08-03T13:08:43;6.43;;;1.60;;
11504;SDS011;5809;53.262;10.408;2022-08-03T13:11:23;2.38;;;1.52;;
11504;SDS011;5809;53.262;10.408;2022-08-03T13:13:53;4.18;;;1.50;;
11504;SDS011;5809;53.262;10.408;2022-08-03T13:16:20;5.10;;;1.85;;
11504;SDS011;5809;53.262;10.408;2022-08-03T13:18:48;4.18;;;1.80;;
11504;SDS011;5809;53.262;10.408;2022-08-03T13:21:17;4.53;;;1.60;;
11504;SDS011;5809;53.262;10.408;2022-08-03T13:23:45;3.30;;;1.70;;
11504;SDS011;5809;53.262;10.408;2022-08-03T13:26:12;7.03;;;1.83;;
11504;SDS011;5809;53.262;10.408;2022-08-03T13:28:38;3.58;;;1.60;;
11504;SDS011;5809;53.262;10.408;2022-08-03T13:31:07;4.50;;;1.67;;
11504;SDS011;5809;53.262;10.408;2022-08-03T13:33:34;3.20;;;1.73;;
11504;SDS011;5809;53.262;10.408;2022-08-03T13:36:03;2.67;;;1.50;;
11504;SDS011;5809;53.262;10.408;2022-08-03T13:38:30;5.13;;;1.80;;
11504;SDS011;5809;53.262;10.408;2022-08-03T13:40:57;2.53;;;1.33;;
11504;SDS011;5809;53.262;10.408;2022-08-03T13:43:26;6.47;;;2.03;;
11504;SDS011;5809;53.262;10.408;2022-08-03T13:45:53;3.25;;;1.63;;
11504;SDS011;5809;53.262;10.408;2022-08-03T13:48:22;6.43;;;1.85;;
11504;SDS011;5809;53.262;10.408;2022-08-03T13:50:49;4.00;;;1.52;;
11504;SDS011;5809;53.262;10.408;2022-08-03T13:53:16;4.95;;;1.65;;
11504;SDS011;5809;53.262;10.408;2022-08-03T13:55:43;3.72;;;1.30;;
11504;SDS011;5809;53.262;10.408;2022-08-03T13:58:10;4.65;;;1.80;;
11504;SDS011;5809;53.262;10.408;2022-08-03T14:00:37;2.60;;;1.63;;
11504;SDS011;5809;53.262;10.408;2022-08-03T14:03:04;7.18;;;1.70;;
11504;SDS011;5809;53.262;10.408;2022-08-03T14:05:33;2.65;;;1.65;;
11504;SDS011;5809;53.262;10.408;2022-08-03T14:08:02;6.70;;;1.90;;
11504;SDS011;5809;53.262;10.408;2022-08-03T14:10:31;5.57;;;1.63;;
11504;SDS011;5809;53.262;10.408;2022-08-03T14:12:58;4.20;;;1.67;;
11504;SDS011;5809;53.262;10.408;2022-08-03T14:15:26;2.92;;;1.55;;
11504;SDS011;5809;53.262;10.408;2022-08-03T14:17:54;6.57;;;1.77;;
11504;SDS011;5809;53.262;10.408;2022-08-03T14:20:21;4.03;;;1.63;;
11504;SDS011;5809;53.262;10.408;2022-08-03T14:22:49;3.85;;;1.73;;
11504;SDS011;5809;53.262;10.408;2022-08-03T14:25:17;5.15;;;1.80;;
11504;SDS011;5809;53.262;10.408;2022-08-03T14:27:44;3.28;;;1.50;;
11504;SDS011;5809;53.262;10.408;2022-08-03T14:30:11;5.50;;;1.67;;
11504;SDS011;5809;53.262;10.408;2022-08-03T14:32:39;5.03;;;1.73;;
11504;SDS011;5809;53.262;10.408;2022-08-03T14:35:06;3.88;;;1.63;;
11504;SDS011;5809;53.262;10.408;2022-08-03T14:37:34;4.15;;;1.40;;
11504;SDS011;5809;53.262;10.408;2022-08-03T14:40:03;3.58;;;1.55;;
11504;SDS011;5809;53.262;10.408;2022-08-03T14:42:31;3.63;;;1.73;;
11504;SDS011;5809;53.262;10.408;2022-08-03T14:44:58;6.57;;;1.90;;
11504;SDS011;5809;53.262;10.408;2022-08-03T14:47:25;6.63;;;1.90;;
11504;SDS011;5809;53.262;10.408;2022-08-03T14:49:52;4.32;;;1.73;;
11504;SDS011;5809;53.262;10.408;2022-08-03T14:52:19;3.63;;;1.55;;
11504;SDS011;5809;53.262;10.408;2022-08-03T14:54:46;3.28;;;1.70;;
11504;SDS011;5809;53.262;10.408;2022-08-03T14:57:14;4.13;;;1.98;;
11504;SDS011;5809;53.262;10.408;2022-08-03T14:59:41;3.97;;;1.60;;
11504;SDS011;5809;53.262;10.408;2022-08-03T15:02:08;5.45;;;2.03;;
11504;SDS011;5809;53.262;10.408;2022-08-03T15:04:35;6.22;;;2.30;;
11504;SDS011;5809;53.262;10.408;2022-08-03T15:07:02;3.50;;;1.50;;
11504;SDS011;5809;53.262;10.408;2022-08-03T15:09:29;5.18;;;1.92;;
11504;SDS011;5809;53.262;10.408;2022-08-03T15:11:56;5.80;;;1.80;;